sensor_id;sensor_type;location;lat;lon;timestamp;pressure;altitude;pressure_sealevel;temperature;humidity
73842;BME280;62184;52.006;5.924;2024-01-06T00:00:05;99579.03;;;11.31;87.43
73842;BME280;62184;52.006;5.924;2024-01-06T00:02:35;99583.63;;;11.29;87.28
73842;BME280;62184;52.006;5.924;2024-01-06T00:05:01;99580.78;;;11.32;87.64
73842;BME280;62184;52.006;5.924;2024-01-06T00:07:28;99579.78;;;11.34;87.57
73842;BME280;62184;52.006;5.924;2024-01-06T00:09:54;99594.94;;;11.34;87.46
73842;BME280;62184;52.006;5.924;2024-01-06T00:12:20;99589.91;;;11.28;87.29
73842;BME280;62184;52.006;5.924;2024-01-06T00:14:47;99601.66;;;11.24;87.55
73842;BME280;62184;52.006;5.924;2024-01-06T00:17:13;99600.22;;;11.16;87.38
73842;BME280;62184;52.006;5.924;2024-01-06T00:19:42;99600.34;;;11.13;87.41
73842;BME280;62184;52.006;5.924;2024-01-06T00:22:09;99597.84;;;11.10;87.59
73842;BME280;62184;52.006;5.924;2024-01-06T00:24:35;99607.59;;;11.11;87.46
73842;BME280;62184;52.006;5.924;2024-01-06T00:27:02;99609.41;;;11.11;87.64
73842;BME280;62184;52.006;5.924;2024-01-06T00:29:29;99609.53;;;11.08;87.35
73842;BME280;62184;52.006;5.924;2024-01-06T00:31:55;99612.44;;;11.03;87.51
73842;BME280;62184;52.006;5.924;2024-01-06T00:34:22;99610.84;;;10.99;87.35
73842;BME280;62184;52.006;5.924;2024-01-06T00:36:51;99609.09;;;10.98;87.48
73842;BME280;62184;52.006;5.924;2024-01-06T00:39:17;99609.97;;;10.99;87.49
73842;BME280;62184;52.006;5.924;2024-01-06T00:41:43;99615.31;;;10.99;87.21
73842;BME280;62184;52.006;5.924;2024-01-06T00:44:10;99613.44;;;11.01;87.44
73842;BME280;62184;52.006;5.924;2024-01-06T00:46:36;99622.44;;;10.98;87.12
73842;BME280;62184;52.006;5.924;2024-01-06T00:49:03;99628.88;;;10.94;87.42
73842;BME280;62184;52.006;5.924;2024-01-06T00:51:29;99628.09;;;10.92;87.53
73842;BME280;62184;52.006;5.924;2024-01-06T00:53:58;99634.34;;;10.91;87.47
73842;BME280;62184;52.006;5.924;2024-01-06T00:56:25;99632.78;;;10.87;87.39
73842;BME280;62184;52.006;5.924;2024-01-06T00:58:51;99629.19;;;10.88;87.24
73842;BME280;62184;52.006;5.924;2024-01-06T01:01:17;99624.53;;;10.92;87.25
73842;BME280;62184;52.006;5.924;2024-01-06T01:03:44;99623.75;;;10.90;87.39
73842;BME280;62184;52.006;5.924;2024-01-06T01:06:10;99629.19;;;10.88;87.51
73842;BME280;62184;52.006;5.924;2024-01-06T01:08:37;99632.91;;;10.84;87.42
73842;BME280;62184;52.006;5.924;2024-01-06T01:11:06;99632.31;;;10.77;87.51
73842;BME280;62184;52.006;5.924;2024-01-06T01:13:32;99630.66;;;10.75;87.34
73842;BME280;62184;52.006;5.924;2024-01-06T01:15:58;99638.69;;;10.73;87.55
73842;BME280;62184;52.006;5.924;2024-01-06T01:18:25;99645.84;;;10.73;87.45
73842;BME280;62184;52.006;5.924;2024-01-06T01:20:51;99647.72;;;10.71;87.46
73842;BME280;62184;52.006;5.924;2024-01-06T01:23:18;99649.53;;;10.70;87.37
73842;BME280;62184;52.006;5.924;2024-01-06T01:25:44;99649.59;;;10.69;87.47
73842;BME280;62184;52.006;5.924;2024-01-06T01:28:13;99651.34;;;10.70;87.42
73842;BME280;62184;52.006;5.924;2024-01-06T01:30:40;99664.53;;;10.73;87.24
73842;BME280;62184;52.006;5.924;2024-01-06T01:33:06;99662.00;;;10.70;87.40
73842;BME280;62184;52.006;5.924;2024-01-06T01:35:33;99671.94;;;10.66;87.40
73842;BME280;62184;52.006;5.924;2024-01-06T01:37:59;99677.50;;;10.62;87.42
73842;BME280;62184;52.006;5.924;2024-01-06T01:40:25;99679.31;;;10.61;87.26
73842;BME280;62184;52.006;5.924;2024-01-06T01:42:52;99675.81;;;10.59;87.20
73842;BME280;62184;52.006;5.924;2024-01-06T01:45:21;99674.38;;;10.52;87.15
73842;BME280;62184;52.006;5.924;2024-01-06T01:47:47;99681.50;;;10.52;87.34
73842;BME280;62184;52.006;5.924;2024-01-06T01:50:14;99692.19;;;10.52;87.29
73842;BME280;62184;52.006;5.924;2024-01-06T01:52:41;99685.91;;;10.53;87.25
73842;BME280;62184;52.006;5.924;2024-01-06T01:55:08;99690.50;;;10.49;87.07
73842;BME280;62184;52.006;5.924;2024-01-06T01:57:35;99694.16;;;10.47;87.13
73842;BME280;62184;52.006;5.924;2024-01-06T02:00:02;99688.16;;;10.41;87.25
73842;BME280;62184;52.006;5.924;2024-01-06T02:02:32;99702.66;;;10.36;87.12
73842;BME280;62184;52.006;5.924;2024-01-06T02:04:58;99700.97;;;10.33;87.27
73842;BME280;62184;52.006;5.924;2024-01-06T02:07:25;99710.81;;;10.31;87.22
73842;BME280;62184;52.006;5.924;2024-01-06T02:09:52;99714.38;;;10.32;87.27
73842;BME280;62184;52.006;5.924;2024-01-06T02:12:18;99715.25;;;10.32;87.25
73842;BME280;62184;52.006;5.924;2024-01-06T02:14:45;99715.13;;;10.35;87.16
73842;BME280;62184;52.006;5.924;2024-01-06T02:17:11;99728.72;;;10.29;87.18
73842;BME280;62184;52.006;5.924;2024-01-06T02:19:40;99727.03;;;10.27;87.09
73842;BME280;62184;52.006;5.924;2024-01-06T02:22:09;99730.66;;;10.26;87.15
73842;BME280;62184;52.006;5.924;2024-01-06T02:24:36;99732.44;;;10.25;87.31
73842;BME280;62184;52.006;5.924;2024-01-06T02:27:02;99731.63;;;10.23;87.25
73842;BME280;62184;52.006;5.924;2024-01-06T02:29:29;99738.09;;;10.18;87.13
73842;BME280;62184;52.006;5.924;2024-01-06T02:31:56;99742.75;;;10.13;87.10
73842;BME280;62184;52.006;5.924;2024-01-06T02:34:22;99749.94;;;10.11;86.97
73842;BME280;62184;52.006;5.924;2024-01-06T02:36:48;99746.34;;;10.12;86.86
73842;BME280;62184;52.006;5.924;2024-01-06T02:39:17;99753.34;;;10.14;87.09
73842;BME280;62184;52.006;5.924;2024-01-06T02:41:44;99756.94;;;10.13;87.07
73842;BME280;62184;52.006;5.924;2024-01-06T02:44:10;99759.75;;;10.10;87.00
73842;BME280;62184;52.006;5.924;2024-01-06T02:46:37;99759.00;;;10.07;86.98
73842;BME280;62184;52.006;5.924;2024-01-06T02:49:03;99769.72;;;10.05;86.78
73842;BME280;62184;52.006;5.924;2024-01-06T02:51:29;99768.69;;;10.09;87.01
73842;BME280;62184;52.006;5.924;2024-01-06T02:53:56;99768.63;;;10.11;87.08
73842;BME280;62184;52.006;5.924;2024-01-06T02:56:25;99767.75;;;10.10;86.99
73842;BME280;62184;52.006;5.924;2024-01-06T02:58:51;99774.69;;;10.14;87.09
73842;BME280;62184;52.006;5.924;2024-01-06T03:01:17;99778.19;;;10.16;86.80
73842;BME280;62184;52.006;5.924;2024-01-06T03:03:44;99775.72;;;10.12;86.89
73842;BME280;62184;52.006;5.924;2024-01-06T03:06:10;99774.13;;;10.06;86.90
73842;BME280;62184;52.006;5.924;2024-01-06T03:08:37;99784.06;;;10.02;86.96
73842;BME280;62184;52.006;5.924;2024-01-06T03:11:03;99785.25;;;9.95;86.92
73842;BME280;62184;52.006;5.924;2024-01-06T03:13:32;99792.28;;;9.96;86.81
73842;BME280;62184;52.006;5.924;2024-01-06T03:16:03;99787.72;;;10.00;86.97
73842;BME280;62184;52.006;5.924;2024-01-06T03:18:30;99799.88;;;10.07;87.02
73842;BME280;62184;52.006;5.924;2024-01-06T03:20:56;99801.56;;;10.10;86.89
73842;BME280;62184;52.006;5.924;2024-01-06T03:23:22;99803.94;;;10.17;86.62
73842;BME280;62184;52.006;5.924;2024-01-06T03:25:49;99809.16;;;10.20;86.76
73842;BME280;62184;52.006;5.924;2024-01-06T03:28:15;99801.38;;;10.14;86.50
73842;BME280;62184;52.006;5.924;2024-01-06T03:30:44;99806.91;;;10.10;86.52
73842;BME280;62184;52.006;5.924;2024-01-06T03:33:11;99814.91;;;10.10;86.53
73842;BME280;62184;52.006;5.924;2024-01-06T03:35:37;99816.91;;;10.05;86.76
73842;BME280;62184;52.006;5.924;2024-01-06T03:38:04;99820.50;;;10.03;86.78
73842;BME280;62184;52.006;5.924;2024-01-06T03:40:30;99821.47;;;10.01;86.71
73842;BME280;62184;52.006;5.924;2024-01-06T03:42:57;99822.59;;;9.95;86.88
73842;BME280;62184;52.006;5.924;2024-01-06T03:45:23;99824.50;;;9.92;86.83
73842;BME280;62184;52.006;5.924;2024-01-06T03:47:52;99828.59;;;10.00;87.09
73842;BME280;62184;52.006;5.924;2024-01-06T03:50:18;99827.69;;;10.01;87.18
73842;BME280;62184;52.006;5.924;2024-01-06T03:52:45;99828.56;;;10.02;87.00
73842;BME280;62184;52.006;5.924;2024-01-06T03:55:11;99840.44;;;9.93;86.91
73842;BME280;62184;52.006;5.924;2024-01-06T03:57:37;99836.34;;;9.85;86.64
73842;BME280;62184;52.006;5.924;2024-01-06T04:00:07;99837.44;;;9.79;86.75
73842;BME280;62184;52.006;5.924;2024-01-06T04:02:34;99844.63;;;9.77;86.71
73842;BME280;62184;52.006;5.924;2024-01-06T04:05:04;99842.94;;;9.75;86.62
73842;BME280;62184;52.006;5.924;2024-01-06T04:07:30;99845.66;;;9.73;86.68
73842;BME280;62184;52.006;5.924;2024-01-06T04:09:57;99856.25;;;9.75;86.64
73842;BME280;62184;52.006;5.924;2024-01-06T04:12:23;99856.16;;;9.78;86.76
73842;BME280;62184;52.006;5.924;2024-01-06T04:14:50;99855.38;;;9.74;86.68
73842;BME280;62184;52.006;5.924;2024-01-06T04:17:16;99856.44;;;9.70;86.46
73842;BME280;62184;52.006;5.924;2024-01-06T04:19:42;99852.03;;;9.69;86.83
73842;BME280;62184;52.006;5.924;2024-01-06T04:22:11;99856.59;;;9.65;86.79
73842;BME280;62184;52.006;5.924;2024-01-06T04:24:38;99857.72;;;9.60;86.72
73842;BME280;62184;52.006;5.924;2024-01-06T04:27:05;99859.84;;;9.50;86.54
73842;BME280;62184;52.006;5.924;2024-01-06T04:29:31;99857.50;;;9.41;86.40
73842;BME280;62184;52.006;5.924;2024-01-06T04:31:57;99862.22;;;9.33;86.41
73842;BME280;62184;52.006;5.924;2024-01-06T04:34:24;99857.94;;;9.29;86.53
73842;BME280;62184;52.006;5.924;2024-01-06T04:36:50;99857.81;;;9.32;86.75
73842;BME280;62184;52.006;5.924;2024-01-06T04:39:19;99858.47;;;9.39;86.55
73842;BME280;62184;52.006;5.924;2024-01-06T04:41:46;99868.19;;;9.40;86.59
73842;BME280;62184;52.006;5.924;2024-01-06T04:44:12;99863.75;;;9.40;86.64
73842;BME280;62184;52.006;5.924;2024-01-06T04:46:38;99865.59;;;9.38;86.45
73842;BME280;62184;52.006;5.924;2024-01-06T04:49:05;99870.19;;;9.35;86.35
73842;BME280;62184;52.006;5.924;2024-01-06T04:51:31;99872.97;;;9.30;86.68
73842;BME280;62184;52.006;5.924;2024-01-06T04:53:57;99869.56;;;9.26;86.51
73842;BME280;62184;52.006;5.924;2024-01-06T04:56:26;99876.84;;;9.21;86.69
73842;BME280;62184;52.006;5.924;2024-01-06T04:58:53;99870.88;;;9.13;86.53
73842;BME280;62184;52.006;5.924;2024-01-06T05:01:19;99880.66;;;9.13;86.48
73842;BME280;62184;52.006;5.924;2024-01-06T05:03:46;99881.66;;;9.10;86.41
73842;BME280;62184;52.006;5.924;2024-01-06T05:06:13;99895.84;;;9.11;86.57
73842;BME280;62184;52.006;5.924;2024-01-06T05:08:39;99893.88;;;9.16;86.45
73842;BME280;62184;52.006;5.924;2024-01-06T05:11:05;99897.47;;;9.15;86.66
73842;BME280;62184;52.006;5.924;2024-01-06T05:13:34;99908.13;;;9.15;86.53
73842;BME280;62184;52.006;5.924;2024-01-06T05:16:01;99895.63;;;9.17;86.56
73842;BME280;62184;52.006;5.924;2024-01-06T05:18:27;99899.16;;;9.19;86.50
73842;BME280;62184;52.006;5.924;2024-01-06T05:20:54;99903.38;;;9.24;86.55
73842;BME280;62184;52.006;5.924;2024-01-06T05:23:21;99900.72;;;9.24;86.62
73842;BME280;62184;52.006;5.924;2024-01-06T05:25:47;99909.69;;;9.22;86.46
73842;BME280;62184;52.006;5.924;2024-01-06T05:28:14;99916.00;;;9.19;86.53
73842;BME280;62184;52.006;5.924;2024-01-06T05:30:43;99907.09;;;9.20;86.59
73842;BME280;62184;52.006;5.924;2024-01-06T05:33:10;99913.38;;;9.18;86.56
73842;BME280;62184;52.006;5.924;2024-01-06T05:35:36;99920.50;;;9.17;86.57
73842;BME280;62184;52.006;5.924;2024-01-06T05:38:03;99938.19;;;9.20;86.69
73842;BME280;62184;52.006;5.924;2024-01-06T05:40:29;99935.63;;;9.15;86.59
73842;BME280;62184;52.006;5.924;2024-01-06T05:42:56;99934.97;;;9.09;86.46
73842;BME280;62184;52.006;5.924;2024-01-06T05:45:22;99938.47;;;9.11;86.63
73842;BME280;62184;52.006;5.924;2024-01-06T05:47:51;99937.56;;;9.12;86.66
73842;BME280;62184;52.006;5.924;2024-01-06T05:50:18;99936.81;;;9.07;86.47
73842;BME280;62184;52.006;5.924;2024-01-06T05:52:44;99945.69;;;9.07;86.58
73842;BME280;62184;52.006;5.924;2024-01-06T05:55:11;99950.97;;;9.09;86.70
73842;BME280;62184;52.006;5.924;2024-01-06T05:57:37;99963.22;;;9.13;86.53
73842;BME280;62184;52.006;5.924;2024-01-06T06:00:08;99960.69;;;9.10;86.45
73842;BME280;62184;52.006;5.924;2024-01-06T06:02:35;99959.19;;;9.01;86.31
73842;BME280;62184;52.006;5.924;2024-01-06T06:05:04;99971.03;;;8.93;86.34
73842;BME280;62184;52.006;5.924;2024-01-06T06:07:31;99975.44;;;8.94;86.66
73842;BME280;62184;52.006;5.924;2024-01-06T06:09:57;99977.22;;;8.93;86.40
73842;BME280;62184;52.006;5.924;2024-01-06T06:12:24;99984.53;;;8.86;86.16
73842;BME280;62184;52.006;5.924;2024-01-06T06:14:50;99987.19;;;8.86;86.25
73842;BME280;62184;52.006;5.924;2024-01-06T06:17:17;99990.78;;;8.85;86.59
73842;BME280;62184;52.006;5.924;2024-01-06T06:19:43;99992.53;;;8.86;86.31
73842;BME280;62184;52.006;5.924;2024-01-06T06:22:12;100004.69;;;8.95;86.36
73842;BME280;62184;52.006;5.924;2024-01-06T06:24:38;100012.56;;;8.98;86.41
73842;BME280;62184;52.006;5.924;2024-01-06T06:27:05;100006.56;;;8.92;86.30
73842;BME280;62184;52.006;5.924;2024-01-06T06:29:31;100020.72;;;8.94;86.22
73842;BME280;62184;52.006;5.924;2024-01-06T06:31:57;100026.03;;;8.94;86.39
73842;BME280;62184;52.006;5.924;2024-01-06T06:34:24;100029.59;;;8.93;86.34
73842;BME280;62184;52.006;5.924;2024-01-06T06:36:50;100028.03;;;8.87;86.47
73842;BME280;62184;52.006;5.924;2024-01-06T06:39:19;100035.44;;;8.76;86.38
73842;BME280;62184;52.006;5.924;2024-01-06T06:41:46;100035.75;;;8.65;86.29
73842;BME280;62184;52.006;5.924;2024-01-06T06:44:12;100043.09;;;8.57;86.18
73842;BME280;62184;52.006;5.924;2024-01-06T06:46:39;100043.97;;;8.58;86.52
73842;BME280;62184;52.006;5.924;2024-01-06T06:49:05;100049.22;;;8.61;86.31
73842;BME280;62184;52.006;5.924;2024-01-06T06:51:32;100051.84;;;8.62;86.38
73842;BME280;62184;52.006;5.924;2024-01-06T06:53:58;100056.19;;;8.65;86.40
73842;BME280;62184;52.006;5.924;2024-01-06T06:56:27;100059.72;;;8.65;86.33
73842;BME280;62184;52.006;5.924;2024-01-06T06:58:53;100067.72;;;8.65;86.50
73842;BME280;62184;52.006;5.924;2024-01-06T07:01:20;100067.81;;;8.62;86.30
73842;BME280;62184;52.006;5.924;2024-01-06T07:03:46;100071.44;;;8.60;86.55
73842;BME280;62184;52.006;5.924;2024-01-06T07:06:13;100074.00;;;8.63;86.43
73842;BME280;62184;52.006;5.924;2024-01-06T07:08:39;100076.59;;;8.64;86.63
73842;BME280;62184;52.006;5.924;2024-01-06T07:11:05;100075.63;;;8.68;86.47
73842;BME280;62184;52.006;5.924;2024-01-06T07:13:34;100083.69;;;8.65;86.30
73842;BME280;62184;52.006;5.924;2024-01-06T07:16:01;100094.56;;;8.58;86.26
73842;BME280;62184;52.006;5.924;2024-01-06T07:18:27;100095.69;;;8.49;86.24
73842;BME280;62184;52.006;5.924;2024-01-06T07:20:54;100097.66;;;8.42;86.29
73842;BME280;62184;52.006;5.924;2024-01-06T07:23:20;100109.28;;;8.38;86.28
73842;BME280;62184;52.006;5.924;2024-01-06T07:25:47;100105.72;;;8.39;86.27
73842;BME280;62184;52.006;5.924;2024-01-06T07:28:13;100111.88;;;8.41;86.43
73842;BME280;62184;52.006;5.924;2024-01-06T07:30:42;100109.22;;;8.41;86.22
73842;BME280;62184;52.006;5.924;2024-01-06T07:33:09;100104.84;;;8.39;86.28
73842;BME280;62184;52.006;5.924;2024-01-06T07:35:35;100121.66;;;8.41;86.23
73842;BME280;62184;52.006;5.924;2024-01-06T07:38:01;100109.19;;;8.43;86.34
73842;BME280;62184;52.006;5.924;2024-01-06T07:40:28;100114.38;;;8.46;86.38
73842;BME280;62184;52.006;5.924;2024-01-06T07:42:54;100114.31;;;8.49;86.22
73842;BME280;62184;52.006;5.924;2024-01-06T07:45:21;100128.53;;;8.48;86.31
73842;BME280;62184;52.006;5.924;2024-01-06T07:47:50;100137.50;;;8.45;86.25
73842;BME280;62184;52.006;5.924;2024-01-06T07:50:16;100140.28;;;8.41;86.27
73842;BME280;62184;52.006;5.924;2024-01-06T07:52:43;100141.31;;;8.35;86.00
73842;BME280;62184;52.006;5.924;2024-01-06T07:55:09;100145.06;;;8.28;85.92
73842;BME280;62184;52.006;5.924;2024-01-06T07:57:35;100150.44;;;8.25;86.10
73842;BME280;62184;52.006;5.924;2024-01-06T08:00:02;100151.19;;;8.30;86.17
73842;BME280;62184;52.006;5.924;2024-01-06T08:02:29;100153.75;;;8.35;86.03
73842;BME280;62184;52.006;5.924;2024-01-06T08:04:58;100165.31;;;8.34;85.98
73842;BME280;62184;52.006;5.924;2024-01-06T08:07:25;100166.28;;;8.30;86.11
73842;BME280;62184;52.006;5.924;2024-01-06T08:09:51;100169.88;;;8.29;85.94
73842;BME280;62184;52.006;5.924;2024-01-06T08:12:18;100182.34;;;8.27;86.08
73842;BME280;62184;52.006;5.924;2024-01-06T08:14:44;100185.94;;;8.24;86.01
73842;BME280;62184;52.006;5.924;2024-01-06T08:17:11;100180.78;;;8.18;86.16
73842;BME280;62184;52.006;5.924;2024-01-06T08:19:37;100192.38;;;8.16;86.15
73842;BME280;62184;52.006;5.924;2024-01-06T08:22:06;100200.31;;;8.17;86.04
73842;BME280;62184;52.006;5.924;2024-01-06T08:24:32;100208.13;;;8.23;86.36
73842;BME280;62184;52.006;5.924;2024-01-06T08:26:59;100209.94;;;8.21;86.24
73842;BME280;62184;52.006;5.924;2024-01-06T08:29:25;100213.56;;;8.20;86.34
73842;BME280;62184;52.006;5.924;2024-01-06T08:31:52;100217.16;;;8.18;86.33
73842;BME280;62184;52.006;5.924;2024-01-06T08:34:18;100222.63;;;8.11;86.24
73842;BME280;62184;52.006;5.924;2024-01-06T08:36:45;100223.59;;;8.07;86.25
73842;BME280;62184;52.006;5.924;2024-01-06T08:39:14;100223.75;;;8.03;86.20
73842;BME280;62184;52.006;5.924;2024-01-06T08:41:40;100231.81;;;7.98;86.22
73842;BME280;62184;52.006;5.924;2024-01-06T08:44:07;100237.03;;;8.03;86.25
73842;BME280;62184;52.006;5.924;2024-01-06T08:46:33;100235.13;;;8.08;86.17
73842;BME280;62184;52.006;5.924;2024-01-06T08:48:59;100234.19;;;8.10;86.39
73842;BME280;62184;52.006;5.924;2024-01-06T08:51:26;100241.94;;;8.20;85.99
73842;BME280;62184;52.006;5.924;2024-01-06T08:53:52;100240.03;;;8.25;86.45
73842;BME280;62184;52.006;5.924;2024-01-06T08:56:21;100249.75;;;8.26;86.40
73842;BME280;62184;52.006;5.924;2024-01-06T08:58:48;100249.72;;;8.27;86.37
73842;BME280;62184;52.006;5.924;2024-01-06T09:01:14;100260.25;;;8.32;86.37
73842;BME280;62184;52.006;5.924;2024-01-06T09:03:41;100263.84;;;8.29;86.26
73842;BME280;62184;52.006;5.924;2024-01-06T09:06:07;100269.09;;;8.32;86.53
73842;BME280;62184;52.006;5.924;2024-01-06T09:08:34;100272.47;;;8.39;86.65
73842;BME280;62184;52.006;5.924;2024-01-06T09:11:00;100273.31;;;8.41;86.59
73842;BME280;62184;52.006;5.924;2024-01-06T09:13:29;100279.66;;;8.37;86.69
73842;BME280;62184;52.006;5.924;2024-01-06T09:15:55;100284.13;;;8.35;86.62
73842;BME280;62184;52.006;5.924;2024-01-06T09:18:22;100283.28;;;8.33;86.66
73842;BME280;62184;52.006;5.924;2024-01-06T09:20:48;100291.25;;;8.33;86.59
73842;BME280;62184;52.006;5.924;2024-01-06T09:23:16;100290.34;;;8.34;86.77
73842;BME280;62184;52.006;5.924;2024-01-06T09:25:43;100299.19;;;8.36;86.77
73842;BME280;62184;52.006;5.924;2024-01-06T09:28:09;100301.03;;;8.32;86.63
73842;BME280;62184;52.006;5.924;2024-01-06T09:30:38;100299.25;;;8.33;86.66
73842;BME280;62184;52.006;5.924;2024-01-06T09:33:04;100304.69;;;8.28;86.65
73842;BME280;62184;52.006;5.924;2024-01-06T09:35:31;100309.34;;;8.19;86.51
73842;BME280;62184;52.006;5.924;2024-01-06T09:37:57;100318.31;;;8.13;86.37
73842;BME280;62184;52.006;5.924;2024-01-06T09:40:24;100320.16;;;8.11;86.53
73842;BME280;62184;52.006;5.924;2024-01-06T09:42:51;100323.84;;;8.04;86.50
73842;BME280;62184;52.006;5.924;2024-01-06T09:45:18;100330.22;;;7.97;86.42
73842;BME280;62184;52.006;5.924;2024-01-06T09:47:49;100330.41;;;7.89;86.26
73842;BME280;62184;52.006;5.924;2024-01-06T09:50:18;100334.16;;;7.79;86.15
73842;BME280;62184;52.006;5.924;2024-01-06T09:52:46;100338.63;;;7.79;86.16
73842;BME280;62184;52.006;5.924;2024-01-06T09:55:13;100339.41;;;7.82;86.05
73842;BME280;62184;52.006;5.924;2024-01-06T09:57:40;100342.06;;;7.84;86.21
73842;BME280;62184;52.006;5.924;2024-01-06T10:00:07;100349.19;;;7.82;86.13
73842;BME280;62184;52.006;5.924;2024-01-06T10:02:34;100340.44;;;7.77;85.98
73842;BME280;62184;52.006;5.924;2024-01-06T10:05:04;100352.06;;;7.71;86.18
73842;BME280;62184;52.006;5.924;2024-01-06T10:07:31;100347.69;;;7.68;85.98
73842;BME280;62184;52.006;5.924;2024-01-06T10:09:58;100357.34;;;7.72;85.97
73842;BME280;62184;52.006;5.924;2024-01-06T10:12:25;100359.91;;;7.79;86.06
73842;BME280;62184;52.006;5.924;2024-01-06T10:14:52;100366.78;;;7.87;86.20
73842;BME280;62184;52.006;5.924;2024-01-06T10:17:18;100361.41;;;7.90;86.16
73842;BME280;62184;52.006;5.924;2024-01-06T10:19:45;100364.25;;;7.81;86.24
73842;BME280;62184;52.006;5.924;2024-01-06T10:22:14;100363.56;;;7.71;86.18
73842;BME280;62184;52.006;5.924;2024-01-06T10:24:41;100363.63;;;7.70;86.05
73842;BME280;62184;52.006;5.924;2024-01-06T10:27:07;100368.97;;;7.68;86.01
73842;BME280;62184;52.006;5.924;2024-01-06T10:29:34;100376.13;;;7.65;86.28
73842;BME280;62184;52.006;5.924;2024-01-06T10:32:01;100368.09;;;7.68;85.98
73842;BME280;62184;52.006;5.924;2024-01-06T10:34:29;100370.78;;;7.66;86.12
73842;BME280;62184;52.006;5.924;2024-01-06T10:36:56;100379.59;;;7.68;86.17
73842;BME280;62184;52.006;5.924;2024-01-06T10:39:25;100382.19;;;7.71;86.09
73842;BME280;62184;52.006;5.924;2024-01-06T10:41:52;100390.13;;;7.73;86.24
73842;BME280;62184;52.006;5.924;2024-01-06T10:44:21;100383.88;;;7.75;86.11
73842;BME280;62184;52.006;5.924;2024-01-06T10:46:49;100384.66;;;7.81;86.34
73842;BME280;62184;52.006;5.924;2024-01-06T10:49:17;100387.31;;;7.81;86.28
73842;BME280;62184;52.006;5.924;2024-01-06T10:51:46;100389.06;;;7.82;86.12
73842;BME280;62184;52.006;5.924;2024-01-06T10:54:15;100386.41;;;7.82;86.23
73842;BME280;62184;52.006;5.924;2024-01-06T10:56:46;100397.72;;;7.91;86.49
73842;BME280;62184;52.006;5.924;2024-01-06T10:59:18;100396.78;;;7.95;86.43
73842;BME280;62184;52.006;5.924;2024-01-06T11:01:50;100395.78;;;7.99;86.33
73842;BME280;62184;52.006;5.924;2024-01-06T11:04:19;100400.22;;;7.99;86.40
73842;BME280;62184;52.006;5.924;2024-01-06T11:06:48;100409.97;;;7.98;86.27
73842;BME280;62184;52.006;5.924;2024-01-06T11:09:19;100401.16;;;7.96;86.19
73842;BME280;62184;52.006;5.924;2024-01-06T11:11:53;100401.25;;;7.92;85.99
73842;BME280;62184;52.006;5.924;2024-01-06T11:14:22;100406.59;;;7.90;86.14
73842;BME280;62184;52.006;5.924;2024-01-06T11:16:49;100411.13;;;7.87;86.17
73842;BME280;62184;52.006;5.924;2024-01-06T11:19:44;100416.38;;;7.90;86.17
73842;BME280;62184;52.006;5.924;2024-01-06T11:22:21;100418.03;;;7.95;86.21
73842;BME280;62184;52.006;5.924;2024-01-06T11:24:51;100416.19;;;7.97;86.32
73842;BME280;62184;52.006;5.924;2024-01-06T11:27:23;100417.94;;;8.00;86.18
73842;BME280;62184;52.006;5.924;2024-01-06T11:29:51;100418.66;;;8.06;86.29
73842;BME280;62184;52.006;5.924;2024-01-06T11:32:27;100420.56;;;8.01;86.34
73842;BME280;62184;52.006;5.924;2024-01-06T11:34:56;100420.47;;;8.04;86.44
73842;BME280;62184;52.006;5.924;2024-01-06T11:37:35;100416.84;;;8.08;86.37
73842;BME280;62184;52.006;5.924;2024-01-06T11:40:04;100420.47;;;8.04;86.50
73842;BME280;62184;52.006;5.924;2024-01-06T11:42:37;100415.25;;;8.01;86.47
73842;BME280;62184;52.006;5.924;2024-01-06T11:45:08;100422.34;;;8.01;86.42
73842;BME280;62184;52.006;5.924;2024-01-06T11:47:35;100418.78;;;8.02;86.33
73842;BME280;62184;52.006;5.924;2024-01-06T11:50:02;100426.72;;;8.03;86.27
73842;BME280;62184;52.006;5.924;2024-01-06T11:52:30;100426.56;;;8.11;86.28
73842;BME280;62184;52.006;5.924;2024-01-06T11:54:57;100425.75;;;8.06;86.16
73842;BME280;62184;52.006;5.924;2024-01-06T11:57:25;100426.75;;;8.02;86.01
73842;BME280;62184;52.006;5.924;2024-01-06T11:59:54;100431.28;;;7.97;86.26
73842;BME280;62184;52.006;5.924;2024-01-06T12:02:21;100432.06;;;8.02;85.71
73842;BME280;62184;52.006;5.924;2024-01-06T12:04:48;100428.75;;;7.91;85.84
73842;BME280;62184;52.006;5.924;2024-01-06T12:07:15;100428.00;;;7.84;85.95
73842;BME280;62184;52.006;5.924;2024-01-06T12:09:42;100431.63;;;7.80;85.92
73842;BME280;62184;52.006;5.924;2024-01-06T12:12:09;100428.94;;;7.82;86.07
73842;BME280;62184;52.006;5.924;2024-01-06T12:14:37;100420.22;;;7.75;86.22
73842;BME280;62184;52.006;5.924;2024-01-06T12:17:06;100434.53;;;7.68;86.09
73842;BME280;62184;52.006;5.924;2024-01-06T12:19:33;100434.53;;;7.68;86.03
73842;BME280;62184;52.006;5.924;2024-01-06T12:22:01;100424.75;;;7.70;86.05
73842;BME280;62184;52.006;5.924;2024-01-06T12:24:28;100423.00;;;7.69;86.12
73842;BME280;62184;52.006;5.924;2024-01-06T12:26:56;100433.72;;;7.63;86.04
73842;BME280;62184;52.006;5.924;2024-01-06T12:29:23;100432.84;;;7.62;86.15
73842;BME280;62184;52.006;5.924;2024-01-06T12:31:52;100430.00;;;7.73;86.37
73842;BME280;62184;52.006;5.924;2024-01-06T12:34:21;100431.75;;;7.74;86.35
73842;BME280;62184;52.006;5.924;2024-01-06T12:36:52;100426.56;;;7.68;86.12
73842;BME280;62184;52.006;5.924;2024-01-06T12:39:19;100439.75;;;7.72;86.12
73842;BME280;62184;52.006;5.924;2024-01-06T12:41:45;100439.78;;;7.71;86.26
73842;BME280;62184;52.006;5.924;2024-01-06T12:44:13;100439.72;;;7.74;86.33
73842;BME280;62184;52.006;5.924;2024-01-06T12:46:39;100432.66;;;7.73;86.33
73842;BME280;62184;52.006;5.924;2024-01-06T12:49:05;100437.00;;;7.79;86.38
73842;BME280;62184;52.006;5.924;2024-01-06T12:51:35;100432.50;;;7.81;86.41
73842;BME280;62184;52.006;5.924;2024-01-06T12:54:01;100432.50;;;7.81;86.27
73842;BME280;62184;52.006;5.924;2024-01-06T12:56:27;100431.72;;;7.77;86.39
73842;BME280;62184;52.006;5.924;2024-01-06T12:58:54;100442.41;;;7.72;86.35
73842;BME280;62184;52.006;5.924;2024-01-06T13:01:20;100446.94;;;7.67;86.24